Time;durP1;ratioP1;P1;durP2;ratioP2;P2;SDS_P1;SDS_P2;PMS_P1;PMS_P2;Temp;Humidity;BMP_temperature;BMP_pressure;BME280_temperature;BME280_humidity;BME280_pressure;Samples;Min_cycle;Max_cycle;Signal;HPM_P1;HPM_P2
2022/03/14 00:02:28;;;;;;;62.00;51.50;;;28.70;76.30;;;;;;1870054;75;21189;-88
2022/03/14 00:05:00;;;;;;;62.65;50.92;;;28.70;76.60;;;;;;1894731;75;21256;-88
2022/03/14 00:07:31;;;;;;;57.95;48.30;;;28.70;76.50;;;;;;1897660;75;21198;-90
2022/03/14 00:10:04;;;;;;;60.58;47.25;;;28.70;76.80;;;;;;1898172;75;21740;-88
2022/03/14 00:12:35;;;;;;;55.63;48.80;;;28.70;76.50;;;;;;1894051;75;21120;-87
2022/03/14 00:15:09;;;;;;;61.55;48.73;;;28.70;76.90;;;;;;1875189;75;21100;-87
2022/03/14 00:17:40;;;;;;;58.63;47.60;;;28.70;76.70;;;;;;1870349;75;21156;-87
2022/03/14 00:20:12;;;;;;;54.77;47.85;;;28.70;76.90;;;;;;1878190;75;21080;-89
2022/03/14 00:22:45;;;;;;;60.10;49.40;;;28.70;76.50;;;;;;1885346;75;21159;-87
2022/03/14 00:25:15;;;;;;;56.33;47.80;;;28.70;77.70;;;;;;1861301;75;21176;-89
2022/03/14 00:27:46;;;;;;;57.23;49.55;;;28.70;77.00;;;;;;1871140;75;21623;-88
2022/03/14 00:30:18;;;;;;;58.75;50.20;;;28.80;77.10;;;;;;1887893;75;21618;-88
2022/03/14 00:32:49;;;;;;;64.10;52.00;;;28.80;76.90;;;;;;1888797;75;21599;-88
2022/03/14 00:35:21;;;;;;;61.55;50.33;;;28.80;76.80;;;;;;1876830;75;21138;-89
2022/03/14 00:37:52;;;;;;;62.48;52.65;;;28.80;77.00;;;;;;1883744;75;21626;-88
2022/03/14 00:40:23;;;;;;;64.32;51.30;;;28.80;76.60;;;;;;1837950;77;21602;-89
2022/03/14 00:42:55;;;;;;;57.58;49.40;;;28.80;76.60;;;;;;1899843;75;21135;-88
2022/03/14 00:45:26;;;;;;;57.95;48.55;;;28.80;76.90;;;;;;1878212;75;21135;-88
2022/03/14 00:47:57;;;;;;;55.85;48.02;;;28.90;76.70;;;;;;1891058;74;21535;-88
2022/03/14 00:50:28;;;;;;;59.33;48.73;;;28.90;76.80;;;;;;1885198;75;21166;-88
2022/03/14 00:52:59;;;;;;;61.02;49.40;;;28.90;76.60;;;;;;1885783;74;21069;-89
2022/03/14 00:55:29;;;;;;;56.35;48.55;;;29.00;76.30;;;;;;1881694;75;21540;-88
2022/03/14 00:58:00;;;;;;;57.75;46.77;;;29.00;76.40;;;;;;1883535;75;21650;-87
2022/03/14 01:00:31;;;;;;;54.80;46.92;;;28.90;76.00;;;;;;1874007;74;21595;-86
2022/03/14 01:03:04;;;;;;;58.35;47.03;;;29.00;75.90;;;;;;1898961;74;21131;-88
2022/03/14 01:05:35;;;;;;;55.65;45.92;;;29.00;76.00;;;;;;1880223;75;21137;-88
2022/03/14 01:08:06;;;;;;;56.68;45.70;;;29.00;75.80;;;;;;1882303;75;21128;-88
2022/03/14 01:10:37;;;;;;;52.88;45.03;;;29.00;75.70;;;;;;1877370;75;21563;-88
2022/03/14 01:13:11;;;;;;;56.48;48.08;;;29.10;75.60;;;;;;1867368;75;21591;-88
2022/03/14 01:15:41;;;;;;;52.48;46.75;;;29.10;75.10;;;;;;1901334;75;21216;-89
2022/03/14 01:18:13;;;;;;;59.93;46.45;;;29.10;74.80;;;;;;1901006;75;21242;-89
2022/03/14 01:20:44;;;;;;;56.35;48.35;;;29.10;74.70;;;;;;1896054;75;21136;-88
2022/03/14 01:23:15;;;;;;;56.60;47.58;;;29.10;74.90;;;;;;1901144;75;21168;-88
2022/03/14 01:25:46;;;;;;;56.77;47.98;;;29.20;75.10;;;;;;1896922;75;21677;-89
2022/03/14 01:28:17;;;;;;;55.55;47.35;;;29.20;74.90;;;;;;1898591;75;21052;-88
2022/03/14 01:30:48;;;;;;;55.65;48.58;;;29.20;74.90;;;;;;1863206;75;21207;-87
2022/03/14 01:33:18;;;;;;;58.70;48.25;;;29.30;75.20;;;;;;1868525;75;21197;-90
2022/03/14 01:35:49;;;;;;;54.55;46.05;;;29.30;75.10;;;;;;1897656;74;21661;-88
2022/03/14 01:38:20;;;;;;;55.45;47.48;;;29.30;74.80;;;;;;1888482;75;21151;-88
2022/03/14 01:40:51;;;;;;;58.33;46.90;;;29.40;74.70;;;;;;1893121;75;21182;-89
2022/03/14 01:43:24;;;;;;;56.80;48.65;;;29.50;74.50;;;;;;1867165;75;21191;-89
2022/03/14 01:45:56;;;;;;;57.70;48.30;;;29.60;74.30;;;;;;1801386;78;21659;-89
2022/03/14 01:48:28;;;;;;;53.80;47.27;;;29.60;74.20;;;;;;1843907;76;21128;-88
2022/03/14 01:50:59;;;;;;;56.63;48.40;;;29.70;74.20;;;;;;1885390;74;21115;-89
2022/03/14 01:53:31;;;;;;;56.53;46.68;;;29.70;75.00;;;;;;1877757;75;21124;-88
2022/03/14 01:56:02;;;;;;;60.85;47.80;;;29.80;73.90;;;;;;1883588;75;21837;-87
2022/03/14 01:58:33;;;;;;;56.02;46.65;;;29.90;73.70;;;;;;1840287;77;21136;-87
2022/03/14 02:01:04;;;;;;;59.85;48.70;;;29.90;73.40;;;;;;1873532;75;21135;-90
2022/03/14 02:03:35;;;;;;;56.75;47.65;;;30.00;73.30;;;;;;1825644;77;21178;-89
2022/03/14 02:06:06;;;;;;;57.85;47.23;;;30.00;73.10;;;;;;1884610;74;21112;-90
2022/03/14 02:08:37;;;;;;;54.53;47.25;;;30.10;73.00;;;;;;1888501;75;21091;-90
2022/03/14 02:11:08;;;;;;;55.50;48.73;;;30.10;72.90;;;;;;1879409;75;21145;-88
2022/03/14 02:13:39;;;;;;;58.45;47.80;;;30.10;72.80;;;;;;1861195;75;21137;-90
2022/03/14 02:16:10;;;;;;;55.60;48.95;;;30.30;72.90;;;;;;1873773;75;21076;-89
2022/03/14 02:18:41;;;;;;;58.35;46.88;;;30.30;72.80;;;;;;1874518;75;21143;-90
2022/03/14 02:21:13;;;;;;;57.10;47.35;;;30.40;72.80;;;;;;1879061;75;21636;-89
2022/03/14 02:23:44;;;;;;;52.95;44.60;;;30.40;72.60;;;;;;1871923;75;21190;-89
2022/03/14 02:26:14;;;;;;;54.83;47.65;;;30.50;72.00;;;;;;1879272;75;21127;-91
2022/03/14 02:28:45;;;;;;;56.37;46.60;;;30.60;72.10;;;;;;1876980;75;21594;-90
2022/03/14 02:31:16;;;;;;;60.40;47.08;;;30.60;71.90;;;;;;1881188;75;21151;-90
2022/03/14 02:33:47;;;;;;;59.65;46.53;;;30.70;71.70;;;;;;1885774;75;21148;-90
2022/03/14 02:36:18;;;;;;;57.70;46.28;;;30.70;71.60;;;;;;1875691;75;21190;-89
2022/03/14 02:38:48;;;;;;;55.12;45.88;;;30.80;71.30;;;;;;1838403;77;21103;-89
2022/03/14 02:41:19;;;;;;;54.15;44.95;;;30.90;71.00;;;;;;1871783;75;21068;-89
2022/03/14 02:43:50;;;;;;;57.67;46.98;;;30.90;70.90;;;;;;1871617;75;21205;-90
2022/03/14 02:46:21;;;;;;;58.65;47.60;;;31.00;70.90;;;;;;1875542;74;21088;-88
2022/03/14 02:48:52;;;;;;;52.80;45.00;;;31.00;70.60;;;;;;1870805;75;21064;-88
2022/03/14 02:51:23;;;;;;;55.00;44.67;;;31.10;70.40;;;;;;1877038;75;21108;-88
2022/03/14 02:53:55;;;;;;;49.77;44.13;;;31.20;70.50;;;;;;1867054;76;21080;-91
2022/03/14 02:56:26;;;;;;;54.42;44.13;;;31.30;70.10;;;;;;1871887;75;21680;-88
2022/03/14 02:58:57;;;;;;;53.68;45.25;;;31.30;69.80;;;;;;1877658;75;21227;-88
2022/03/14 03:01:27;;;;;;;53.65;44.95;;;31.40;69.60;;;;;;1878873;75;21056;-89
2022/03/14 03:04:01;;;;;;;50.58;44.93;;;31.40;70.20;;;;;;1837456;77;21586;-89
2022/03/14 03:06:33;;;;;;;51.53;44.73;;;31.60;69.10;;;;;;1871683;75;21104;-88
2022/03/14 03:09:05;;;;;;;53.65;45.03;;;31.70;69.20;;;;;;1831526;76;21198;-88
2022/03/14 03:11:36;;;;;;;58.68;45.50;;;31.80;68.60;;;;;;1879513;75;21578;-89
2022/03/14 03:14:07;;;;;;;53.48;45.48;;;31.90;68.10;;;;;;1870013;75;21084;-90
2022/03/14 03:16:38;;;;;;;57.95;45.92;;;32.00;67.70;;;;;;1880973;75;21685;-89
2022/03/14 03:19:08;;;;;;;51.10;44.03;;;32.10;67.80;;;;;;1842707;76;21077;-88
2022/03/14 03:21:39;;;;;;;56.10;45.33;;;32.30;67.10;;;;;;1886026;75;21179;-89
2022/03/14 03:24:12;;;;;;;54.35;44.08;;;32.40;66.70;;;;;;1883154;75;22371;-90
2022/03/14 03:26:43;;;;;;;56.13;45.50;;;32.50;67.20;;;;;;1883672;74;21632;-89
2022/03/14 03:29:14;;;;;;;48.75;43.63;;;32.60;66.20;;;;;;1881553;74;21127;-89
2022/03/14 03:31:44;;;;;;;53.58;45.25;;;32.70;65.70;;;;;;1876859;75;21195;-89
2022/03/14 03:34:15;;;;;;;54.77;44.53;;;32.90;65.10;;;;;;1880099;75;21198;-88
2022/03/14 03:36:46;;;;;;;53.10;44.23;;;33.00;64.80;;;;;;1874404;75;21172;-90
2022/03/14 03:39:17;;;;;;;56.13;44.73;;;33.00;64.60;;;;;;1874773;75;21163;-90
2022/03/14 03:41:47;;;;;;;50.70;45.30;;;33.10;64.80;;;;;;1884453;74;21096;-89
2022/03/14 03:44:18;;;;;;;55.48;44.08;;;33.20;64.10;;;;;;1878706;73;21145;-89
2022/03/14 03:46:49;;;;;;;53.70;44.50;;;33.30;62.70;;;;;;1822749;78;21187;-91
2022/03/14 03:49:19;;;;;;;48.87;41.65;;;33.40;62.30;;;;;;1843241;77;21548;-90
2022/03/14 03:51:50;;;;;;;48.35;42.55;;;33.50;62.20;;;;;;1798307;79;21262;-90
2022/03/14 03:54:21;;;;;;;48.28;41.42;;;33.60;62.30;;;;;;1831680;78;21695;-89
2022/03/14 03:56:55;;;;;;;45.52;40.15;;;33.70;61.50;;;;;;1833425;78;21888;-90
2022/03/14 03:59:26;;;;;;;44.95;39.88;;;33.80;62.10;;;;;;1833205;77;21171;-89
2022/03/14 04:01:56;;;;;;;50.50;40.20;;;33.90;61.10;;;;;;1832225;76;21171;-89
2022/03/14 04:04:28;;;;;;;44.27;39.05;;;34.10;61.40;;;;;;1829279;77;21189;-91
2022/03/14 04:07:00;;;;;;;49.10;40.90;;;34.20;60.40;;;;;;1831326;77;21264;-91
2022/03/14 04:09:30;;;;;;;48.68;41.95;;;34.20;59.80;;;;;;1843407;77;21465;-90
2022/03/14 04:12:01;;;;;;;47.48;39.78;;;34.30;59.90;;;;;;1867106;75;21567;-89
2022/03/14 04:14:32;;;;;;;44.77;39.95;;;34.40;59.80;;;;;;1867276;77;21173;-90
2022/03/14 04:17:04;;;;;;;44.53;38.83;;;34.50;60.40;;;;;;1887648;75;21293;-91
2022/03/14 04:19:37;;;;;;;44.08;39.23;;;34.60;60.80;;;;;;1894881;75;21052;-90
2022/03/14 04:22:08;;;;;;;43.13;38.48;;;34.70;59.00;;;;;;1881810;75;21214;-91
2022/03/14 04:24:38;;;;;;;47.50;39.78;;;34.80;58.90;;;;;;1880448;75;21068;-89
2022/03/14 04:27:09;;;;;;;46.30;40.33;;;34.90;58.90;;;;;;1883430;75;21072;-89
2022/03/14 04:29:41;;;;;;;45.80;39.38;;;35.00;60.30;;;;;;1879192;75;21131;-91
2022/03/14 04:32:11;;;;;;;42.93;38.33;;;35.10;59.00;;;;;;1879910;75;21202;-91
2022/03/14 04:34:42;;;;;;;42.35;37.73;;;35.20;58.40;;;;;;1878501;74;21160;-90
2022/03/14 04:37:14;;;;;;;45.48;36.53;;;35.20;57.10;;;;;;1873421;74;21163;-89
2022/03/14 04:39:45;;;;;;;37.10;33.33;;;35.40;56.70;;;;;;1883941;75;21189;-89
2022/03/14 04:42:17;;;;;;;39.92;34.73;;;35.40;56.30;;;;;;1877187;75;21672;-91
2022/03/14 04:44:49;;;;;;;38.88;34.83;;;35.40;58.40;;;;;;1899074;75;21128;-91
2022/03/14 04:47:20;;;;;;;41.00;36.45;;;35.40;56.70;;;;;;1902603;75;21260;-91
2022/03/14 04:49:51;;;;;;;40.43;36.13;;;35.40;56.00;;;;;;1892988;75;21141;-91
2022/03/14 04:52:22;;;;;;;48.65;38.88;;;35.50;56.00;;;;;;1884563;75;21134;-92
2022/03/14 04:54:54;;;;;;;39.65;35.38;;;35.50;56.90;;;;;;1854729;75;21087;-92
2022/03/14 04:57:25;;;;;;;39.50;35.28;;;35.50;57.20;;;;;;1881599;75;22308;-91
2022/03/14 04:59:58;;;;;;;43.92;37.70;;;35.50;56.90;;;;;;1862283;76;21612;-90
2022/03/14 05:02:29;;;;;;;38.33;34.20;;;35.60;56.20;;;;;;1895511;75;21116;-91
2022/03/14 05:05:00;;;;;;;41.63;37.10;;;35.70;55.40;;;;;;1901735;75;21068;-88
2022/03/14 05:07:31;;;;;;;42.83;35.90;;;35.80;56.60;;;;;;1883016;75;21131;-90
2022/03/14 05:10:02;;;;;;;40.38;35.10;;;35.80;56.30;;;;;;1886124;74;21088;-90
2022/03/14 05:12:34;;;;;;;38.70;32.48;;;35.70;55.90;;;;;;1884609;74;21216;-90
2022/03/14 05:15:05;;;;;;;39.38;34.33;;;35.70;57.50;;;;;;1882890;75;21096;-88
2022/03/14 05:17:36;;;;;;;37.90;33.80;;;35.80;55.80;;;;;;1868176;74;21234;-88
2022/03/14 05:20:08;;;;;;;39.45;34.18;;;35.70;56.80;;;;;;1874233;75;21080;-91
2022/03/14 05:22:42;;;;;;;39.25;34.70;;;35.70;56.00;;;;;;1907007;74;21111;-90
2022/03/14 05:25:13;;;;;;;40.38;34.45;;;35.80;55.80;;;;;;1900801;75;21146;-89
2022/03/14 05:27:44;;;;;;;39.05;34.83;;;35.80;56.10;;;;;;1883965;75;21061;-90
2022/03/14 05:30:16;;;;;;;39.88;35.55;;;35.90;56.20;;;;;;1826378;77;21077;-91
2022/03/14 05:32:46;;;;;;;39.25;33.92;;;36.00;56.20;;;;;;1902321;75;21112;-89
2022/03/14 05:35:22;;;;;;;38.67;34.43;;;36.10;55.90;;;;;;1899035;74;21215;-89
2022/03/14 05:37:51;;;;;;;39.90;35.40;;;36.10;55.80;;;;;;1878181;75;21080;-90
2022/03/14 05:40:22;;;;;;;39.60;33.75;;;36.10;55.30;;;;;;1824607;78;21504;-89
2022/03/14 05:42:53;;;;;;;40.85;34.83;;;36.10;56.00;;;;;;1822141;77;21290;-86
2022/03/14 05:45:24;;;;;;;39.33;35.05;;;36.20;55.30;;;;;;1877231;74;21139;-90
2022/03/14 05:47:54;;;;;;;39.27;35.23;;;36.20;55.40;;;;;;1877752;75;21095;-89
2022/03/14 05:50:25;;;;;;;44.60;35.28;;;36.20;55.70;;;;;;1872789;75;21147;-90
2022/03/14 05:52:56;;;;;;;39.10;33.45;;;36.30;55.60;;;;;;1878580;75;21207;-87
2022/03/14 05:55:27;;;;;;;38.28;34.27;;;36.40;56.60;;;;;;1882338;75;21120;-89
2022/03/14 05:57:58;;;;;;;39.30;35.30;;;36.50;55.90;;;;;;1890447;75;21614;-89
2022/03/14 06:00:30;;;;;;;39.75;35.50;;;36.50;55.20;;;;;;1886315;75;21079;-90
2022/03/14 06:03:02;;;;;;;37.40;33.35;;;36.40;55.50;;;;;;1895908;75;21100;-90
2022/03/14 06:05:33;;;;;;;38.48;33.18;;;36.40;55.20;;;;;;1880652;75;21165;-89
2022/03/14 06:08:04;;;;;;;37.55;32.78;;;36.50;55.20;;;;;;1875797;75;21193;-91
2022/03/14 06:10:35;;;;;;;38.23;33.53;;;36.50;54.80;;;;;;1882100;75;21184;-91
2022/03/14 06:13:05;;;;;;;41.05;35.38;;;36.50;54.40;;;;;;1880921;75;22003;-88
2022/03/14 06:15:37;;;;;;;40.73;34.43;;;36.40;55.10;;;;;;1873474;75;21191;-89
2022/03/14 06:18:08;;;;;;;41.35;35.90;;;36.50;56.20;;;;;;1881680;75;21296;-87
2022/03/14 06:20:39;;;;;;;38.92;34.75;;;36.40;55.90;;;;;;1806034;77;21179;-90
2022/03/14 06:23:09;;;;;;;38.80;34.23;;;36.40;55.90;;;;;;1880368;75;21166;-89
2022/03/14 06:25:40;;;;;;;37.30;33.35;;;36.40;55.80;;;;;;1884372;75;21860;-88
2022/03/14 06:28:11;;;;;;;36.80;32.60;;;36.50;55.10;;;;;;1885118;74;21615;-89
2022/03/14 06:30:41;;;;;;;37.30;33.30;;;36.40;55.70;;;;;;1881676;75;21205;-88
2022/03/14 06:33:12;;;;;;;36.95;33.02;;;36.40;55.00;;;;;;1883085;75;21171;-90
2022/03/14 06:35:43;;;;;;;38.48;33.23;;;36.40;55.10;;;;;;1832078;76;21085;-89
2022/03/14 06:38:14;;;;;;;35.40;31.68;;;36.40;54.90;;;;;;1837879;76;21142;-87
2022/03/14 06:40:45;;;;;;;35.15;31.15;;;36.40;55.40;;;;;;1880018;75;21124;-88
2022/03/14 06:43:21;;;;;;;36.35;31.93;;;36.40;55.90;;;;;;1880152;75;21131;-88
2022/03/14 06:45:48;;;;;;;38.28;32.55;;;36.50;54.30;;;;;;1876647;75;21148;-89
2022/03/14 06:48:19;;;;;;;36.88;32.88;;;36.50;54.40;;;;;;1878698;75;21131;-91
2022/03/14 06:50:50;;;;;;;35.70;31.73;;;36.50;54.20;;;;;;1881819;75;21153;-91
2022/03/14 06:53:20;;;;;;;35.85;31.48;;;36.50;53.70;;;;;;1836452;76;21112;-89
2022/03/14 06:55:51;;;;;;;36.13;31.87;;;36.60;53.80;;;;;;1873133;75;21171;-89
2022/03/14 06:58:22;;;;;;;37.73;31.90;;;36.70;53.40;;;;;;1844011;75;21135;-89
2022/03/14 07:00:53;;;;;;;35.55;31.97;;;36.70;53.00;;;;;;1885781;74;21205;-88
2022/03/14 07:03:28;;;;;;;35.98;32.25;;;36.70;52.40;;;;;;1878185;75;21123;-88
2022/03/14 07:06:04;;;;;;;36.00;32.20;;;36.70;52.30;;;;;;1878417;75;21116;-91
2022/03/14 07:08:35;;;;;;;38.15;32.85;;;36.60;53.90;;;;;;1875561;75;21060;-90
2022/03/14 07:11:05;;;;;;;36.73;32.63;;;36.60;54.40;;;;;;1841002;77;21230;-90
2022/03/14 07:13:36;;;;;;;37.25;33.20;;;36.60;54.50;;;;;;1883977;75;21134;-92
2022/03/14 07:16:07;;;;;;;38.73;31.30;;;36.50;54.20;;;;;;1874277;75;21642;-89
2022/03/14 07:18:39;;;;;;;39.42;32.90;;;36.30;55.10;;;;;;1856474;74;21058;-90
2022/03/14 07:21:10;;;;;;;37.65;32.70;;;36.20;55.30;;;;;;1829793;76;21176;-91
2022/03/14 07:23:42;;;;;;;35.95;32.05;;;36.20;55.10;;;;;;1847333;76;21153;-90
2022/03/14 07:26:14;;;;;;;35.10;31.57;;;36.20;54.80;;;;;;1763717;79;21183;-90
2022/03/14 07:28:48;;;;;;;35.10;31.33;;;36.20;54.60;;;;;;1777703;79;21776;-91
2022/03/14 07:31:20;;;;;;;35.68;32.00;;;36.20;54.10;;;;;;1761952;80;21272;-89
2022/03/14 07:33:52;;;;;;;39.13;31.80;;;36.20;55.20;;;;;;1770058;80;21631;-89
2022/03/14 07:36:22;;;;;;;35.58;31.85;;;36.20;54.80;;;;;;1741437;81;21277;-90
2022/03/14 07:38:56;;;;;;;35.88;31.07;;;36.30;54.20;;;;;;1710419;83;21166;-91
2022/03/14 07:41:25;;;;;;;34.70;31.07;;;36.30;54.70;;;;;;1721698;82;21211;-90
2022/03/14 07:44:00;;;;;;;33.42;30.00;;;36.20;53.80;;;;;;1776691;80;21094;-89
2022/03/14 07:46:31;;;;;;;35.08;31.42;;;36.20;53.70;;;;;;1736640;81;21213;-90
2022/03/14 07:49:02;;;;;;;33.65;29.98;;;36.20;54.20;;;;;;1694565;83;21217;-89
2022/03/14 07:51:33;;;;;;;35.55;29.87;;;36.20;53.80;;;;;;1736166;81;21114;-90
2022/03/14 07:54:04;;;;;;;33.75;30.15;;;36.10;53.60;;;;;;1692211;84;21173;-91
2022/03/14 07:56:35;;;;;;;34.43;30.80;;;36.10;53.30;;;;;;1752173;78;21139;-91
2022/03/14 07:59:06;;;;;;;34.38;30.72;;;36.20;54.10;;;;;;1806305;79;21153;-89
2022/03/14 08:01:37;;;;;;;34.45;31.02;;;36.20;53.50;;;;;;1870085;76;21091;-89
2022/03/14 08:04:08;;;;;;;33.25;30.05;;;36.20;53.40;;;;;;1869866;76;21175;-89
2022/03/14 08:06:41;;;;;;;34.90;31.25;;;36.20;53.80;;;;;;1847199;76;21538;-86
2022/03/14 08:09:11;;;;;;;33.90;30.17;;;36.20;54.00;;;;;;1781887;79;21670;-90
2022/03/14 08:11:42;;;;;;;33.78;29.65;;;36.10;53.80;;;;;;1850389;76;21359;-89
2022/03/14 08:14:13;;;;;;;32.88;29.45;;;36.00;53.80;;;;;;1836022;76;21145;-90
2022/03/14 08:16:45;;;;;;;33.95;30.10;;;36.00;53.80;;;;;;1852622;77;21138;-89
2022/03/14 08:19:16;;;;;;;32.25;28.98;;;36.10;53.10;;;;;;1864962;75;21145;-87
2022/03/14 08:21:49;;;;;;;32.23;28.75;;;36.10;52.50;;;;;;1855858;76;21168;-89
2022/03/14 08:24:20;;;;;;;32.70;28.80;;;36.10;52.00;;;;;;1848345;77;21172;-91
2022/03/14 08:26:51;;;;;;;32.10;28.67;;;36.00;52.30;;;;;;1860333;76;21285;-92
2022/03/14 08:29:21;;;;;;;33.23;29.42;;;36.00;53.10;;;;;;1851863;76;21068;-90
2022/03/14 08:31:52;;;;;;;33.35;29.55;;;36.00;53.50;;;;;;1853326;77;21115;-90
2022/03/14 08:34:24;;;;;;;33.10;29.42;;;36.00;53.60;;;;;;1855777;76;21678;-92
2022/03/14 08:36:58;;;;;;;31.27;27.90;;;35.90;53.60;;;;;;1859940;75;21245;-90
2022/03/14 08:39:32;;;;;;;32.90;29.60;;;35.90;52.90;;;;;;1860679;76;21254;-91
2022/03/14 08:42:04;;;;;;;32.73;29.10;;;35.90;52.80;;;;;;1856486;76;21592;-92
2022/03/14 08:44:35;;;;;;;32.33;29.10;;;35.90;53.20;;;;;;1860628;76;21264;-92
2022/03/14 08:47:07;;;;;;;36.38;30.55;;;35.90;54.20;;;;;;1863613;75;21126;-92
2022/03/14 08:49:38;;;;;;;33.13;29.67;;;35.90;53.60;;;;;;1858619;74;21199;-85
2022/03/14 08:52:09;;;;;;;33.98;30.35;;;35.90;53.70;;;;;;1926140;73;21147;-84
2022/03/14 08:54:40;;;;;;;34.48;30.97;;;35.90;53.90;;;;;;1871869;76;21726;-83
2022/03/14 08:57:11;;;;;;;33.02;29.15;;;35.80;54.30;;;;;;1944374;73;21115;-85
2022/03/14 08:59:42;;;;;;;35.73;32.10;;;35.90;54.20;;;;;;1880544;74;21693;-86
2022/03/14 09:02:13;;;;;;;34.35;30.60;;;35.90;54.30;;;;;;1918704;74;21111;-86
2022/03/14 09:04:45;;;;;;;33.60;30.17;;;35.80;53.80;;;;;;1897393;74;21186;-83
2022/03/14 09:07:21;;;;;;;34.40;30.02;;;35.80;53.60;;;;;;1864933;74;21216;-85
2022/03/14 09:09:52;;;;;;;33.15;29.63;;;35.70;52.50;;;;;;1921225;73;21130;-85
2022/03/14 09:12:26;;;;;;;33.25;29.67;;;35.60;52.90;;;;;;1888449;74;21142;-83
2022/03/14 09:14:56;;;;;;;39.08;31.45;;;35.60;52.50;;;;;;1955808;73;21126;-85
2022/03/14 09:17:28;;;;;;;30.82;27.52;;;35.60;52.40;;;;;;1914045;74;21205;-86
2022/03/14 09:20:01;;;;;;;32.65;29.25;;;35.60;51.90;;;;;;1866389;75;21193;-86
2022/03/14 09:22:32;;;;;;;32.48;29.02;;;35.60;52.10;;;;;;1928630;73;21119;-86
2022/03/14 09:25:05;;;;;;;32.73;29.40;;;35.60;52.40;;;;;;1860877;76;21734;-87
2022/03/14 09:27:35;;;;;;;31.85;28.35;;;35.50;53.00;;;;;;1904806;75;21076;-84
2022/03/14 09:30:06;;;;;;;31.82;28.62;;;35.60;53.00;;;;;;1895601;74;21137;-85
2022/03/14 09:32:37;;;;;;;30.95;27.77;;;35.50;52.50;;;;;;1887189;74;22079;-86
2022/03/14 09:35:09;;;;;;;31.52;27.87;;;35.50;53.00;;;;;;1884127;75;21119;-86
2022/03/14 09:37:41;;;;;;;34.88;31.10;;;35.50;52.10;;;;;;1922851;73;21251;-85
2022/03/14 09:40:16;;;;;;;31.37;28.07;;;35.40;52.80;;;;;;1928244;73;21193;-87
2022/03/14 09:42:49;;;;;;;32.25;28.40;;;35.40;51.90;;;;;;1900255;73;21197;-86
2022/03/14 09:45:21;;;;;;;33.23;29.72;;;35.40;52.00;;;;;;1918658;73;21103;-85
2022/03/14 09:47:53;;;;;;;35.90;30.77;;;35.40;52.80;;;;;;1911439;73;21049;-86
2022/03/14 09:50:26;;;;;;;41.18;35.75;;;35.40;52.70;;;;;;1918370;74;21828;-85
2022/03/14 09:52:58;;;;;;;32.63;28.73;;;35.40;52.70;;;;;;1891104;74;21924;-86
2022/03/14 09:55:40;;;;;;;31.30;28.07;;;35.40;52.10;;;;;;1932874;73;21119;-87
2022/03/14 09:58:03;;;;;;;32.73;29.18;;;35.30;52.50;;;;;;1894572;74;21229;-87
2022/03/14 10:00:34;;;;;;;32.48;29.18;;;35.30;53.00;;;;;;1886814;74;21673;-86
2022/03/14 10:03:06;;;;;;;33.20;29.55;;;35.20;53.10;;;;;;1929518;73;21615;-86
2022/03/14 10:05:38;;;;;;;32.83;29.25;;;35.20;53.70;;;;;;1884234;75;21190;-84
2022/03/14 10:08:09;;;;;;;31.45;28.30;;;35.20;54.20;;;;;;1878194;73;21157;-85
2022/03/14 10:10:40;;;;;;;34.05;30.40;;;35.10;54.70;;;;;;1931219;73;21135;-86
2022/03/14 10:13:14;;;;;;;33.00;29.57;;;35.20;54.60;;;;;;1889693;74;21273;-88
2022/03/14 10:15:45;;;;;;;35.58;29.90;;;35.10;54.60;;;;;;1887610;74;21069;-86
2022/03/14 10:18:21;;;;;;;33.95;30.35;;;35.00;54.50;;;;;;1926907;73;21135;-85
2022/03/14 10:20:57;;;;;;;34.53;30.80;;;35.00;54.70;;;;;;1915849;73;21563;-86
2022/03/14 10:23:33;;;;;;;34.15;30.52;;;34.90;55.20;;;;;;1908916;74;21166;-86
2022/03/14 10:26:06;;;;;;;36.17;31.07;;;34.90;55.00;;;;;;1919431;73;21161;-86
2022/03/14 10:28:37;;;;;;;33.88;30.37;;;34.80;55.30;;;;;;1928419;73;21610;-84
2022/03/14 10:31:11;;;;;;;33.48;29.98;;;34.80;55.40;;;;;;1909371;74;21605;-85
2022/03/14 10:33:42;;;;;;;35.28;31.45;;;34.80;55.40;;;;;;1928260;73;21174;-86
2022/03/14 10:36:13;;;;;;;36.77;32.33;;;34.70;55.10;;;;;;1860283;76;21239;-86
2022/03/14 10:38:44;;;;;;;36.83;32.73;;;34.70;55.30;;;;;;1956930;73;21191;-85
2022/03/14 10:41:15;;;;;;;33.85;30.35;;;34.70;55.10;;;;;;1909507;74;21169;-87
2022/03/14 10:43:48;;;;;;;35.38;31.68;;;34.70;55.80;;;;;;1870490;75;21276;-86
2022/03/14 10:46:21;;;;;;;38.05;33.73;;;34.60;54.80;;;;;;1845969;76;21476;-85
2022/03/14 10:48:52;;;;;;;38.00;32.53;;;34.60;55.10;;;;;;1872425;74;21200;-86
2022/03/14 10:51:23;;;;;;;39.85;33.18;;;34.60;55.00;;;;;;1895711;74;21072;-85
2022/03/14 10:53:54;;;;;;;39.95;33.55;;;34.60;55.30;;;;;;1897459;74;21516;-87
2022/03/14 10:56:27;;;;;;;35.35;31.82;;;34.50;55.40;;;;;;1857994;77;21689;-86
2022/03/14 10:58:58;;;;;;;36.70;32.13;;;34.50;55.50;;;;;;1910167;74;21063;-84
2022/03/14 11:01:29;;;;;;;40.25;35.60;;;34.50;55.70;;;;;;1934668;73;21704;-85
2022/03/14 11:04:00;;;;;;;34.83;31.20;;;34.50;56.00;;;;;;1920372;73;21143;-86
2022/03/14 11:06:33;;;;;;;35.55;31.82;;;34.40;56.00;;;;;;1916283;74;21079;-85
2022/03/14 11:09:03;;;;;;;36.90;33.10;;;34.40;56.00;;;;;;1940637;73;21063;-85
2022/03/14 11:11:36;;;;;;;44.38;38.73;;;34.40;56.40;;;;;;1894292;75;21238;-85
2022/03/14 11:14:09;;;;;;;49.75;41.53;;;34.30;56.60;;;;;;1855932;76;21709;-86
2022/03/14 11:16:40;;;;;;;51.95;37.63;;;34.30;56.80;;;;;;1892072;74;21142;-86
2022/03/14 11:19:18;;;;;;;44.90;35.38;;;34.30;57.00;;;;;;1862292;74;21096;-86
2022/03/14 11:21:49;;;;;;;45.15;38.53;;;34.20;57.10;;;;;;1920835;73;21153;-86
2022/03/14 11:24:21;;;;;;;52.25;40.48;;;34.20;57.20;;;;;;1925772;73;21055;-86
2022/03/14 11:26:53;;;;;;;46.85;38.28;;;34.20;57.40;;;;;;1903742;73;21114;-87
2022/03/14 11:29:24;;;;;;;44.73;36.08;;;34.10;57.70;;;;;;1913976;73;21143;-86
2022/03/14 11:31:56;;;;;;;43.25;34.40;;;34.10;57.90;;;;;;1944176;73;21127;-86
2022/03/14 11:34:29;;;;;;;41.65;35.48;;;34.10;58.20;;;;;;1891677;75;21139;-86
2022/03/14 11:36:59;;;;;;;42.78;36.98;;;34.00;58.40;;;;;;1930236;73;21114;-86
2022/03/14 11:39:32;;;;;;;46.95;39.63;;;34.00;58.50;;;;;;1889630;73;21100;-86
2022/03/14 11:42:04;;;;;;;55.23;44.03;;;34.00;58.60;;;;;;1881120;75;21152;-86
2022/03/14 11:44:37;;;;;;;52.60;45.90;;;33.90;58.70;;;;;;1875393;75;21165;-87
2022/03/14 11:47:10;;;;;;;48.55;43.15;;;33.90;59.10;;;;;;1848382;77;21074;-86
2022/03/14 11:49:42;;;;;;;58.15;46.85;;;33.90;59.30;;;;;;1841880;76;21755;-86
2022/03/14 11:52:24;;;;;;;57.60;47.58;;;33.80;59.20;;;;;;1921504;73;21158;-86
2022/03/14 11:54:50;;;;;;;52.55;46.05;;;33.80;59.30;;;;;;1925903;73;21100;-87
2022/03/14 11:57:23;;;;;;;57.27;46.28;;;33.80;59.50;;;;;;1915489;73;21197;-85
2022/03/14 11:59:54;;;;;;;54.73;46.40;;;33.70;59.50;;;;;;1914933;73;21590;-85
2022/03/14 12:02:27;;;;;;;60.03;48.23;;;33.70;59.40;;;;;;1913853;73;21217;-86
2022/03/14 12:05:01;;;;;;;53.00;43.92;;;33.70;59.60;;;;;;1913887;74;21154;-86
2022/03/14 12:07:31;;;;;;;50.30;43.70;;;33.60;59.70;;;;;;1904014;74;21135;-85
2022/03/14 12:10:04;;;;;;;50.28;44.45;;;33.60;60.00;;;;;;1906700;74;21154;-85
2022/03/14 12:12:35;;;;;;;51.08;43.02;;;33.60;60.20;;;;;;1924830;73;21111;-86
2022/03/14 12:15:07;;;;;;;50.08;43.23;;;33.60;60.50;;;;;;1923602;74;21119;-84
2022/03/14 12:17:42;;;;;;;53.02;43.10;;;33.60;60.00;;;;;;1926448;73;21131;-86
2022/03/14 12:20:16;;;;;;;52.98;44.10;;;33.60;60.50;;;;;;1944389;73;21127;-86
2022/03/14 12:22:47;;;;;;;56.83;46.98;;;33.50;60.50;;;;;;1881139;74;21265;-85
2022/03/14 12:25:20;;;;;;;57.48;45.30;;;33.50;60.70;;;;;;1915999;74;21068;-85
2022/03/14 12:27:51;;;;;;;52.45;43.40;;;33.50;60.90;;;;;;1924295;74;21143;-87
2022/03/14 12:30:27;;;;;;;49.63;42.08;;;33.40;60.50;;;;;;1941338;73;21099;-87
2022/03/14 12:32:57;;;;;;;51.55;43.98;;;33.40;60.00;;;;;;1921947;73;21121;-88
2022/03/14 12:35:33;;;;;;;48.02;40.92;;;33.40;60.40;;;;;;1920845;73;21630;-88
2022/03/14 12:38:04;;;;;;;47.15;39.35;;;33.40;60.80;;;;;;1880341;74;21157;-87
2022/03/14 12:40:38;;;;;;;48.73;41.10;;;33.30;61.50;;;;;;1914959;73;21225;-87
2022/03/14 12:43:12;;;;;;;49.33;40.63;;;33.30;63.20;;;;;;1914335;73;21131;-87
2022/03/14 12:45:45;;;;;;;49.77;41.85;;;33.30;63.80;;;;;;1944076;73;21095;-86
2022/03/14 12:48:19;;;;;;;47.58;39.95;;;33.30;63.40;;;;;;1893950;74;21126;-86
2022/03/14 12:50:52;;;;;;;46.55;40.90;;;33.30;64.50;;;;;;1903229;73;21222;-86